Time;durP1;ratioP1;P1;durP2;ratioP2;P2;SDS_P1;SDS_P2;PMS_P1;PMS_P2;Temp;Humidity;BMP_temperature;BMP_pressure;BME280_temperature;BME280_humidity;BME280_pressure;Samples;Min_cycle;Max_cycle;Signal;HPM_P1;HPM_P2
2021/11/04 00:01:44;;;;;;;37.83;20.95;;;12.40;99.90;;;;;;4989184;28;20131;-79
2021/11/04 00:04:12;;;;;;;36.97;20.85;;;12.40;99.90;;;;;;4974786;28;20043;-80
2021/11/04 00:06:39;;;;;;;36.75;20.23;;;12.60;99.90;;;;;;4989482;28;20129;-80
2021/11/04 00:09:07;;;;;;;39.47;20.95;;;12.60;99.90;;;;;;4957520;28;20097;-79
2021/11/04 00:11:35;;;;;;;36.78;21.08;;;12.50;99.90;;;;;;4974490;28;20049;-75
2021/11/04 00:14:02;;;;;;;37.40;20.83;;;12.60;99.90;;;;;;4957389;28;20058;-80
2021/11/04 00:16:29;;;;;;;36.05;20.75;;;12.40;99.90;;;;;;4974457;28;20046;-79
2021/11/04 00:18:56;;;;;;;38.55;20.88;;;12.20;99.90;;;;;;4974612;28;20121;-81
2021/11/04 00:21:24;;;;;;;38.15;21.30;;;12.10;99.90;;;;;;4989498;28;20121;-80
2021/11/04 00:23:51;;;;;;;40.40;21.52;;;12.30;99.90;;;;;;4973749;28;20057;-81
2021/11/04 00:26:18;;;;;;;35.55;20.05;;;12.50;99.90;;;;;;4989501;28;20145;-80
2021/11/04 00:28:49;;;;;;;30.90;20.92;;;12.50;99.90;;;;;;4957499;28;20142;-78
2021/11/04 00:31:16;;;;;;;34.42;20.75;;;12.60;99.90;;;;;;4974427;28;20043;-80
2021/11/04 00:33:43;;;;;;;34.38;20.95;;;12.70;99.90;;;;;;4971236;28;20122;-80
2021/11/04 00:36:11;;;;;;;32.45;19.35;;;12.50;99.90;;;;;;4973879;28;20049;-80
2021/11/04 00:38:38;;;;;;;33.38;19.48;;;12.70;99.90;;;;;;4940898;28;20046;-79
2021/11/04 00:41:06;;;;;;;35.30;20.13;;;12.80;99.90;;;;;;4974248;28;20101;-76
2021/11/04 00:43:33;;;;;;;35.65;20.92;;;12.90;99.90;;;;;;4956193;28;20050;-79
2021/11/04 00:46:00;;;;;;;35.65;19.85;;;12.80;99.90;;;;;;4974039;28;20538;-79
2021/11/04 00:48:28;;;;;;;32.08;20.08;;;12.80;99.90;;;;;;4974058;28;20056;-77
2021/11/04 00:50:55;;;;;;;32.63;19.63;;;12.60;99.90;;;;;;4957440;28;20485;-78
2021/11/04 00:53:22;;;;;;;35.40;20.13;;;12.40;99.90;;;;;;4974387;28;20122;-79
2021/11/04 00:55:51;;;;;;;31.02;18.63;;;12.60;99.90;;;;;;4957092;28;20053;-77
2021/11/04 00:58:18;;;;;;;35.80;19.48;;;12.60;99.90;;;;;;4973433;28;20057;-78
2021/11/04 01:00:46;;;;;;;29.40;19.65;;;12.60;99.90;;;;;;4927072;29;20043;-77
2021/11/04 01:03:13;;;;;;;32.08;18.58;;;12.70;99.90;;;;;;4954391;29;20050;-78
2021/11/04 01:05:41;;;;;;;30.45;18.33;;;12.80;99.90;;;;;;4954083;28;20356;-77
2021/11/04 01:08:09;;;;;;;32.47;19.52;;;12.90;99.90;;;;;;4953665;29;20111;-78
2021/11/04 01:10:36;;;;;;;28.23;18.05;;;12.90;99.90;;;;;;4954264;29;20039;-79
2021/11/04 01:13:04;;;;;;;38.13;19.63;;;12.90;99.90;;;;;;4953811;29;20065;-77
2021/11/04 01:15:31;;;;;;;30.92;19.05;;;12.90;99.90;;;;;;4954297;29;20131;-77
2021/11/04 01:18:01;;;;;;;31.10;19.02;;;12.90;99.90;;;;;;4953663;29;20047;-79
2021/11/04 01:20:29;;;;;;;30.63;18.35;;;12.90;99.90;;;;;;4953827;29;20423;-77
2021/11/04 01:22:56;;;;;;;29.27;19.05;;;12.90;99.90;;;;;;4953955;29;20427;-78
2021/11/04 01:25:23;;;;;;;31.48;18.95;;;12.70;99.90;;;;;;4936781;29;20051;-79
2021/11/04 01:27:51;;;;;;;31.90;19.40;;;12.80;99.90;;;;;;4953452;29;20051;-79
2021/11/04 01:30:18;;;;;;;35.38;20.50;;;12.60;99.90;;;;;;4953995;29;20422;-80
2021/11/04 01:32:46;;;;;;;32.10;19.23;;;12.60;99.90;;;;;;4968540;28;20039;-78
2021/11/04 01:35:13;;;;;;;31.48;19.77;;;12.70;99.90;;;;;;4936879;29;20055;-80
2021/11/04 01:37:40;;;;;;;31.42;19.38;;;12.60;99.90;;;;;;4936768;29;20044;-78
2021/11/04 01:40:08;;;;;;;33.88;19.17;;;12.60;99.90;;;;;;4954169;29;20131;-79
2021/11/04 01:42:35;;;;;;;32.58;18.67;;;12.60;99.90;;;;;;4953697;29;20432;-78
2021/11/04 01:45:03;;;;;;;34.75;21.38;;;12.50;99.90;;;;;;4954013;29;20035;-76
2021/11/04 01:47:30;;;;;;;30.98;19.20;;;12.60;99.90;;;;;;4953573;29;20360;-78
2021/11/04 01:49:58;;;;;;;32.45;19.40;;;12.50;99.90;;;;;;4952472;29;20138;-78
2021/11/04 01:52:26;;;;;;;32.70;20.05;;;12.40;99.90;;;;;;4936048;29;20050;-78
2021/11/04 01:54:53;;;;;;;35.92;19.83;;;12.40;99.90;;;;;;4953329;29;20414;-77
2021/11/04 01:57:20;;;;;;;32.85;18.88;;;12.40;99.90;;;;;;4920573;29;20106;-79
2021/11/04 01:59:48;;;;;;;31.42;18.15;;;12.60;99.90;;;;;;4937606;29;20043;-78
2021/11/04 02:02:18;;;;;;;33.17;19.00;;;12.50;99.90;;;;;;4953463;28;20036;-78
2021/11/04 02:05:02;;;;;;;31.52;19.00;;;12.70;99.90;;;;;;4951952;29;20051;-77
2021/11/04 02:07:48;;;;;;;28.00;18.50;;;12.70;99.90;;;;;;4953547;28;20043;-77
2021/11/04 02:10:32;;;;;;;32.35;18.48;;;12.60;99.90;;;;;;4953535;29;20059;-76
2021/11/04 02:13:15;;;;;;;29.92;18.60;;;12.60;99.90;;;;;;4952822;28;20047;-79
2021/11/04 02:15:45;;;;;;;29.48;18.83;;;12.50;99.90;;;;;;4953577;29;20457;-78
2021/11/04 02:18:14;;;;;;;30.20;18.92;;;12.50;99.90;;;;;;4956112;28;20517;-79
2021/11/04 02:21:08;;;;;;;29.27;17.48;;;12.60;99.90;;;;;;4959065;28;20094;-81
2021/11/04 02:23:50;;;;;;;36.40;18.50;;;12.80;99.90;;;;;;4958986;28;20035;-79
2021/11/04 02:26:20;;;;;;;32.60;19.23;;;12.90;99.90;;;;;;4975231;28;20414;-79
2021/11/04 02:28:48;;;;;;;26.80;17.48;;;13.00;99.90;;;;;;4960002;28;20122;-78
2021/11/04 02:31:16;;;;;;;30.88;17.92;;;12.90;99.90;;;;;;4959969;28;20454;-79
2021/11/04 02:33:43;;;;;;;31.38;19.33;;;12.90;99.90;;;;;;4958307;29;20047;-78
2021/11/04 02:36:12;;;;;;;31.70;17.48;;;12.90;99.90;;;;;;4959790;29;20439;-79
2021/11/04 02:38:39;;;;;;;29.92;18.88;;;12.90;99.90;;;;;;4959399;29;20526;-77
2021/11/04 02:41:07;;;;;;;30.17;18.42;;;13.00;99.90;;;;;;4959652;28;20081;-77
2021/11/04 02:43:36;;;;;;;33.10;18.33;;;13.00;99.90;;;;;;4959128;28;20158;-79
2021/11/04 02:46:05;;;;;;;34.60;19.75;;;13.00;99.90;;;;;;4959461;28;20123;-77
2021/11/04 02:48:33;;;;;;;28.65;17.27;;;13.10;99.90;;;;;;4974090;28;20062;-77
2021/11/04 02:51:00;;;;;;;33.75;18.85;;;13.10;99.90;;;;;;4959988;28;20055;-79
2021/11/04 02:53:29;;;;;;;30.30;18.55;;;13.00;99.90;;;;;;4959964;28;20463;-80
2021/11/04 02:55:57;;;;;;;29.48;17.65;;;13.00;99.90;;;;;;4974662;28;20061;-78
2021/11/04 02:58:27;;;;;;;27.65;17.55;;;13.00;99.90;;;;;;4974125;28;20039;-79
2021/11/04 03:00:59;;;;;;;31.83;18.58;;;13.00;99.90;;;;;;4959501;28;20043;-78
2021/11/04 03:03:27;;;;;;;28.48;18.17;;;12.90;99.90;;;;;;4942092;29;20043;-78
2021/11/04 03:05:54;;;;;;;27.60;17.30;;;12.90;99.90;;;;;;4959414;29;20118;-80
2021/11/04 03:08:24;;;;;;;28.65;17.92;;;12.90;99.90;;;;;;4959590;28;20122;-77
2021/11/04 03:10:53;;;;;;;32.10;17.88;;;13.00;99.90;;;;;;4958283;28;20475;-77
2021/11/04 03:13:20;;;;;;;28.38;17.92;;;13.10;99.90;;;;;;4958615;29;20106;-78
2021/11/04 03:15:54;;;;;;;29.50;18.63;;;13.10;99.90;;;;;;4959167;29;20118;-78
2021/11/04 03:18:24;;;;;;;25.70;17.80;;;13.00;99.90;;;;;;4958930;29;20387;-79
2021/11/04 03:20:53;;;;;;;32.80;20.05;;;13.00;99.90;;;;;;4958189;29;20098;-79
2021/11/04 03:23:21;;;;;;;29.23;17.23;;;13.10;99.90;;;;;;4959609;28;20394;-78
2021/11/04 03:25:49;;;;;;;32.42;18.83;;;13.10;99.90;;;;;;4958043;29;20453;-78
2021/11/04 03:28:17;;;;;;;32.28;19.00;;;13.10;99.90;;;;;;4942166;29;20390;-77
2021/11/04 03:30:45;;;;;;;29.73;18.48;;;13.10;99.90;;;;;;4938467;29;20059;-79
2021/11/04 03:33:14;;;;;;;28.30;18.60;;;13.10;99.90;;;;;;4938921;29;20570;-78
2021/11/04 03:35:42;;;;;;;32.22;20.05;;;13.10;99.90;;;;;;4939014;29;20138;-77
2021/11/04 03:38:11;;;;;;;29.05;18.85;;;13.00;99.90;;;;;;4956364;29;20046;-78
2021/11/04 03:40:40;;;;;;;30.73;20.40;;;13.00;99.90;;;;;;4956319;29;20079;-78
2021/11/04 03:43:09;;;;;;;32.10;20.00;;;13.10;99.90;;;;;;4956102;29;20118;-81
2021/11/04 03:45:38;;;;;;;31.90;20.08;;;13.10;99.90;;;;;;4956036;29;20078;-78
2021/11/04 03:48:06;;;;;;;33.05;21.75;;;13.10;99.90;;;;;;4955854;29;20046;-79
2021/11/04 03:50:36;;;;;;;36.80;21.83;;;13.10;99.90;;;;;;4939081;29;20187;-81
2021/11/04 03:53:05;;;;;;;33.25;21.48;;;13.10;99.90;;;;;;4954534;29;20143;-78
2021/11/04 03:55:34;;;;;;;39.88;22.65;;;13.00;99.90;;;;;;4955849;29;20051;-77
2021/11/04 03:58:01;;;;;;;33.45;20.83;;;13.00;99.90;;;;;;4955395;29;20538;-79
2021/11/04 04:00:29;;;;;;;38.08;23.00;;;13.00;99.90;;;;;;4977500;28;20138;-80
2021/11/04 04:02:57;;;;;;;40.88;23.75;;;13.00;99.90;;;;;;4958220;28;20047;-81
2021/11/04 04:05:33;;;;;;;38.22;22.65;;;12.70;99.90;;;;;;4974399;28;20057;-81
2021/11/04 04:08:02;;;;;;;35.10;22.02;;;12.80;99.90;;;;;;4975262;28;20422;-81
2021/11/04 04:10:32;;;;;;;39.40;23.25;;;12.90;99.90;;;;;;4973645;28;20047;-81
2021/11/04 04:13:01;;;;;;;39.60;21.85;;;13.00;99.90;;;;;;4990033;28;20141;-81
2021/11/04 04:15:28;;;;;;;36.95;21.83;;;12.90;99.90;;;;;;4989903;28;20093;-79
2021/11/04 04:17:56;;;;;;;36.05;22.23;;;12.80;99.90;;;;;;4974986;28;20447;-78
2021/11/04 04:20:25;;;;;;;29.38;19.38;;;12.80;99.90;;;;;;4989688;28;20127;-78
2021/11/04 04:22:52;;;;;;;32.53;20.27;;;13.00;99.90;;;;;;4975014;28;20074;-79
2021/11/04 04:25:20;;;;;;;30.77;19.52;;;12.90;99.90;;;;;;4974287;28;20074;-79
2021/11/04 04:27:47;;;;;;;33.17;20.10;;;12.80;99.90;;;;;;4974628;28;20130;-80
2021/11/04 04:30:14;;;;;;;30.05;18.38;;;12.70;99.90;;;;;;4957127;28;20043;-78
2021/11/04 04:32:42;;;;;;;26.10;17.15;;;12.70;99.90;;;;;;4974625;28;20130;-79
2021/11/04 04:35:09;;;;;;;29.50;17.35;;;12.80;99.90;;;;;;4974481;28;20045;-79
2021/11/04 04:37:36;;;;;;;27.60;16.85;;;12.90;99.90;;;;;;4989178;28;20047;-78
2021/11/04 04:40:04;;;;;;;33.05;20.05;;;13.10;99.90;;;;;;4988955;28;20417;-79
2021/11/04 04:42:31;;;;;;;24.58;16.63;;;13.10;99.90;;;;;;4972938;28;20406;-78
2021/11/04 04:44:58;;;;;;;29.02;16.58;;;13.20;99.90;;;;;;4956913;28;20133;-79
2021/11/04 04:47:26;;;;;;;25.90;16.73;;;13.20;99.90;;;;;;4973984;28;20074;-78
2021/11/04 04:49:58;;;;;;;33.25;17.73;;;13.30;99.90;;;;;;4956714;28;20047;-79
2021/11/04 04:52:26;;;;;;;30.40;16.45;;;13.30;99.90;;;;;;4956714;28;20042;-79
2021/11/04 04:54:54;;;;;;;25.70;16.90;;;13.20;99.90;;;;;;4940874;28;20394;-77
2021/11/04 04:57:23;;;;;;;27.30;16.60;;;13.30;99.90;;;;;;4988713;28;20053;-77
2021/11/04 04:59:51;;;;;;;30.67;18.52;;;13.30;99.90;;;;;;4988330;28;20053;-79
2021/11/04 05:02:19;;;;;;;27.63;17.27;;;13.30;99.90;;;;;;4937223;29;20043;-77
2021/11/04 05:04:47;;;;;;;29.38;17.38;;;13.30;99.90;;;;;;4954484;29;20054;-80
2021/11/04 05:07:15;;;;;;;27.30;16.88;;;13.30;99.90;;;;;;4954527;29;20031;-81
2021/11/04 05:09:42;;;;;;;32.65;17.67;;;13.30;99.90;;;;;;4953322;29;20086;-78
2021/11/04 05:12:09;;;;;;;25.15;16.77;;;13.40;99.90;;;;;;4953802;29;20085;-80
2021/11/04 05:14:37;;;;;;;26.38;17.00;;;13.40;99.90;;;;;;4954186;29;20102;-78
2021/11/04 05:17:05;;;;;;;27.42;17.02;;;13.40;99.90;;;;;;4937223;29;20118;-80
2021/11/04 05:19:33;;;;;;;29.88;16.83;;;13.40;99.90;;;;;;4954369;29;20417;-79
2021/11/04 05:22:00;;;;;;;29.02;16.63;;;13.40;99.90;;;;;;4954307;29;20122;-80
2021/11/04 05:24:34;;;;;;;25.02;15.60;;;13.40;99.90;;;;;;4969215;28;20078;-78
2021/11/04 05:27:03;;;;;;;24.50;16.45;;;13.40;99.90;;;;;;4953226;28;20143;-79
2021/11/04 05:29:30;;;;;;;30.25;15.57;;;13.40;99.90;;;;;;4954248;29;20058;-80
2021/11/04 05:31:58;;;;;;;28.55;15.88;;;13.40;99.90;;;;;;4937515;29;20043;-78
2021/11/04 05:34:26;;;;;;;25.75;14.98;;;13.50;99.90;;;;;;4937596;29;20691;-80
2021/11/04 05:36:53;;;;;;;26.90;16.25;;;13.40;99.90;;;;;;4953120;29;20074;-80
2021/11/04 05:39:20;;;;;;;32.67;16.33;;;13.50;99.90;;;;;;4954282;29;20051;-77
2021/11/04 05:41:48;;;;;;;52.97;32.80;;;13.60;99.90;;;;;;4953487;29;20081;-76
2021/11/04 05:44:15;;;;;;;48.13;28.67;;;13.90;99.90;;;;;;4954235;29;20047;-76
2021/11/04 05:46:42;;;;;;;40.55;24.00;;;14.00;99.90;;;;;;4953780;29;20053;-74
2021/11/04 05:49:09;;;;;;;35.42;22.65;;;13.80;99.90;;;;;;4953305;29;20047;-77
2021/11/04 05:51:37;;;;;;;67.22;25.27;;;13.80;99.90;;;;;;4920753;29;20070;-75
2021/11/04 05:54:04;;;;;;;32.40;21.52;;;13.70;99.90;;;;;;4935836;29;20122;-78
2021/11/04 05:56:31;;;;;;;36.92;22.55;;;13.60;99.90;;;;;;4953469;29;20118;-77
2021/11/04 05:58:59;;;;;;;55.13;30.40;;;13.80;99.90;;;;;;4953358;29;20051;-78
2021/11/04 06:01:28;;;;;;;43.35;24.10;;;14.20;99.90;;;;;;4975534;28;20595;-74
2021/11/04 06:03:56;;;;;;;28.92;20.02;;;14.10;99.90;;;;;;4953723;29;20448;-76
2021/11/04 06:06:23;;;;;;;28.80;17.50;;;14.00;99.90;;;;;;4965134;28;20134;-75
2021/11/04 06:08:51;;;;;;;27.15;16.90;;;14.00;99.90;;;;;;4972366;28;20495;-78
2021/11/04 06:11:18;;;;;;;31.40;16.67;;;13.90;99.90;;;;;;4963566;28;20397;-74
2021/11/04 06:13:45;;;;;;;27.08;15.75;;;13.90;99.90;;;;;;4946610;28;20066;-78
2021/11/04 06:16:14;;;;;;;28.95;17.20;;;14.00;99.90;;;;;;4954895;28;20057;-77
2021/11/04 06:18:41;;;;;;;29.55;17.52;;;14.00;99.90;;;;;;4966003;28;20376;-73
2021/11/04 06:21:13;;;;;;;30.00;16.90;;;13.80;99.90;;;;;;4955095;28;20055;-74
2021/11/04 06:23:41;;;;;;;28.02;18.35;;;13.60;99.90;;;;;;4952991;28;20500;-76
2021/11/04 06:26:08;;;;;;;28.63;16.83;;;13.70;99.90;;;;;;4970596;28;20081;-76
2021/11/04 06:28:36;;;;;;;32.38;19.35;;;13.80;99.90;;;;;;4970107;28;20101;-76
2021/11/04 06:31:03;;;;;;;34.67;22.70;;;13.90;99.90;;;;;;4953170;28;20375;-78
2021/11/04 06:33:31;;;;;;;55.55;30.65;;;14.30;99.90;;;;;;4970742;28;20042;-76
2021/11/04 06:35:58;;;;;;;44.67;26.50;;;14.30;99.90;;;;;;4969426;28;20411;-78
2021/11/04 06:38:25;;;;;;;36.50;20.25;;;14.30;99.90;;;;;;4954637;28;20150;-74
2021/11/04 06:40:53;;;;;;;31.75;19.85;;;14.10;99.90;;;;;;4971284;28;20423;-78
2021/11/04 06:43:20;;;;;;;38.13;19.20;;;14.00;99.90;;;;;;4955109;28;20051;-76
2021/11/04 06:45:50;;;;;;;32.92;18.40;;;14.10;99.90;;;;;;4972734;28;20045;-77
2021/11/04 06:48:24;;;;;;;37.83;18.57;;;14.00;99.90;;;;;;4972604;28;20383;-75
2021/11/04 06:50:56;;;;;;;33.65;18.30;;;14.00;99.90;;;;;;4971254;28;20291;-77
2021/11/04 06:53:27;;;;;;;34.00;18.23;;;14.00;99.90;;;;;;4969614;28;20046;-75
2021/11/04 06:55:59;;;;;;;33.33;19.20;;;14.10;99.90;;;;;;4972179;28;20043;-78
2021/11/04 06:58:30;;;;;;;33.00;18.10;;;14.20;99.90;;;;;;4971975;28;20585;-76
2021/11/04 07:01:08;;;;;;;37.22;18.45;;;14.20;99.90;;;;;;4966320;28;20554;-76
2021/11/04 07:03:43;;;;;;;27.90;17.10;;;14.30;99.90;;;;;;4952791;28;20122;-75
2021/11/04 07:06:11;;;;;;;28.08;17.60;;;14.40;99.90;;;;;;4956491;29;20090;-76
2021/11/04 07:08:51;;;;;;;28.90;16.95;;;14.50;99.90;;;;;;4939523;29;20410;-75
2021/11/04 07:11:19;;;;;;;25.85;16.58;;;14.50;99.90;;;;;;4955910;29;20043;-78
2021/11/04 07:13:51;;;;;;;32.45;16.92;;;14.50;99.90;;;;;;4954524;29;20131;-75
2021/11/04 07:16:23;;;;;;;33.85;18.15;;;14.60;99.90;;;;;;4922214;29;20047;-76
2021/11/04 07:18:52;;;;;;;36.92;17.95;;;14.50;99.90;;;;;;4955818;29;20046;-78
2021/11/04 07:21:33;;;;;;;32.15;16.35;;;14.50;99.90;;;;;;4954462;29;20078;-74
2021/11/04 07:24:04;;;;;;;28.77;16.65;;;14.60;99.90;;;;;;4955776;29;20039;-77
2021/11/04 07:26:38;;;;;;;28.45;16.58;;;14.70;99.90;;;;;;4955927;29;20078;-76
2021/11/04 07:29:08;;;;;;;26.50;16.50;;;14.90;99.90;;;;;;4939128;29;20376;-74
2021/11/04 07:31:41;;;;;;;26.27;15.35;;;15.00;99.90;;;;;;4938829;29;20118;-75
2021/11/04 07:34:11;;;;;;;29.55;14.82;;;15.00;99.90;;;;;;4956039;29;20043;-77
2021/11/04 07:36:40;;;;;;;22.90;14.40;;;15.00;99.90;;;;;;4952419;29;20130;-78
2021/11/04 07:39:11;;;;;;;23.50;14.95;;;15.00;99.90;;;;;;4952057;29;20398;-77
2021/11/04 07:41:38;;;;;;;22.92;15.05;;;15.10;99.90;;;;;;4955725;29;20047;-77
2021/11/04 07:44:05;;;;;;;27.50;15.30;;;15.00;99.90;;;;;;4938751;29;20039;-76
2021/11/04 07:46:33;;;;;;;28.52;15.52;;;15.10;99.90;;;;;;4956007;29;20074;-76
2021/11/04 07:49:00;;;;;;;26.15;16.10;;;15.10;99.90;;;;;;4955704;29;20038;-76
2021/11/04 07:51:28;;;;;;;24.83;16.23;;;15.10;99.90;;;;;;4955842;29;20055;-75
2021/11/04 07:53:56;;;;;;;30.20;17.50;;;15.20;99.90;;;;;;4939088;29;20070;-76
2021/11/04 07:56:24;;;;;;;30.20;17.40;;;15.20;99.90;;;;;;4938855;29;20043;-74
2021/11/04 07:58:51;;;;;;;30.75;18.15;;;15.20;99.90;;;;;;4938507;29;20049;-75
2021/11/04 08:01:18;;;;;;;27.77;18.17;;;15.20;99.90;;;;;;4945243;28;20126;-75
2021/11/04 08:03:46;;;;;;;28.90;17.52;;;15.20;99.90;;;;;;4973411;28;20430;-75
2021/11/04 08:06:15;;;;;;;31.73;18.10;;;15.20;99.90;;;;;;4957313;28;20057;-75
2021/11/04 08:08:43;;;;;;;26.30;17.52;;;15.30;99.90;;;;;;4974499;28;20123;-78
2021/11/04 08:11:10;;;;;;;31.75;18.15;;;15.30;99.90;;;;;;4973081;28;20046;-76
2021/11/04 08:13:37;;;;;;;31.92;18.45;;;15.20;99.90;;;;;;4956434;28;20058;-76
2021/11/04 08:16:05;;;;;;;34.17;18.17;;;15.30;99.90;;;;;;4957430;28;20065;-76
2021/11/04 08:18:34;;;;;;;34.80;18.02;;;15.40;99.90;;;;;;4974196;28;20413;-75
2021/11/04 08:21:01;;;;;;;29.70;17.40;;;15.40;99.90;;;;;;4988824;28;20101;-77
2021/11/04 08:23:29;;;;;;;26.67;16.20;;;15.50;99.90;;;;;;4974598;28;20035;-76
2021/11/04 08:25:56;;;;;;;22.98;15.70;;;15.60;99.90;;;;;;4974326;28;20047;-76
2021/11/04 08:28:23;;;;;;;22.58;14.70;;;15.80;99.90;;;;;;4973910;28;20129;-77
2021/11/04 08:30:51;;;;;;;21.40;13.52;;;16.00;99.90;;;;;;4974259;28;20075;-77
2021/11/04 08:33:18;;;;;;;20.20;12.77;;;16.00;99.90;;;;;;4973969;28;20035;-78
2021/11/04 08:35:46;;;;;;;17.77;11.55;;;16.00;99.90;;;;;;4974628;28;20137;-78
2021/11/04 08:38:16;;;;;;;16.40;10.52;;;16.10;99.90;;;;;;4957461;28;20051;-78
2021/11/04 08:40:43;;;;;;;16.67;10.15;;;16.10;99.90;;;;;;4957262;28;20062;-77
2021/11/04 08:43:11;;;;;;;18.08;9.38;;;16.00;99.90;;;;;;4974020;28;20550;-76
2021/11/04 08:45:38;;;;;;;17.45;9.60;;;16.00;99.90;;;;;;4973950;28;20047;-78
2021/11/04 08:48:06;;;;;;;19.45;9.70;;;16.10;99.90;;;;;;4974238;28;20121;-77
2021/11/04 08:50:33;;;;;;;16.50;9.57;;;16.10;99.90;;;;;;4956994;28;20085;-75
2021/11/04 08:53:00;;;;;;;15.90;9.40;;;16.20;99.90;;;;;;4973973;28;20058;-77
2021/11/04 08:55:28;;;;;;;15.35;9.20;;;16.30;99.90;;;;;;4972750;28;20105;-75
2021/11/04 08:57:55;;;;;;;13.77;9.18;;;16.40;99.90;;;;;;4973642;28;20494;-75
2021/11/04 09:00:22;;;;;;;13.70;8.43;;;16.30;99.90;;;;;;4956807;28;20054;-75
2021/11/04 09:02:50;;;;;;;15.60;7.95;;;16.30;99.90;;;;;;4939059;29;20075;-76
2021/11/04 09:05:17;;;;;;;13.88;8.65;;;16.40;99.90;;;;;;4954695;29;20049;-75
2021/11/04 09:07:44;;;;;;;13.70;7.97;;;16.30;99.90;;;;;;4954527;29;20043;-75
2021/11/04 09:10:14;;;;;;;13.18;7.80;;;16.30;99.90;;;;;;4954266;29;20043;-76
2021/11/04 09:12:42;;;;;;;14.18;7.18;;;16.50;99.90;;;;;;4954017;29;20055;-75
2021/11/04 09:15:11;;;;;;;12.20;7.30;;;16.60;99.90;;;;;;4953966;29;20050;-75
2021/11/04 09:17:39;;;;;;;13.77;8.25;;;16.80;99.90;;;;;;4954303;29;20073;-76
2021/11/04 09:20:09;;;;;;;15.75;7.75;;;17.10;99.90;;;;;;4954026;29;20047;-77
2021/11/04 09:22:43;;;;;;;11.77;8.02;;;17.60;99.90;;;;;;4953797;29;20047;-76
2021/11/04 09:25:10;;;;;;;12.60;7.88;;;18.00;99.90;;;;;;4952355;29;20127;-76
2021/11/04 09:27:37;;;;;;;11.48;7.50;;;18.00;99.90;;;;;;4936080;29;20058;-76
2021/11/04 09:30:05;;;;;;;12.00;6.78;;;17.90;99.90;;;;;;4952706;29;20054;-77
2021/11/04 09:32:32;;;;;;;12.40;6.97;;;18.00;99.90;;;;;;4967890;28;20054;-76
2021/11/04 09:35:01;;;;;;;11.50;6.68;;;18.40;99.90;;;;;;4952601;29;20047;-77
2021/11/04 09:37:28;;;;;;;15.15;6.70;;;18.70;99.90;;;;;;4953514;29;20054;-76
2021/11/04 09:39:55;;;;;;;16.95;6.85;;;18.60;99.90;;;;;;4952641;29;20039;-77
2021/11/04 09:42:24;;;;;;;11.43;7.10;;;18.60;99.90;;;;;;4956674;28;20137;-83
2021/11/04 09:44:53;;;;;;;16.33;6.65;;;18.30;99.90;;;;;;4972456;28;20035;-79
2021/11/04 09:47:26;;;;;;;14.25;6.80;;;18.20;99.90;;;;;;4971794;28;20129;-82
2021/11/04 09:49:55;;;;;;;11.80;6.80;;;18.90;99.90;;;;;;4956259;28;20395;-82
2021/11/04 09:52:24;;;;;;;12.70;7.35;;;19.40;99.90;;;;;;4940240;28;20119;-80
2021/11/04 09:54:54;;;;;;;11.38;6.13;;;20.50;99.90;;;;;;4956123;28;20406;-80
2021/11/04 09:57:26;;;;;;;11.35;6.53;;;21.30;99.90;;;;;;4972934;28;20039;-79
2021/11/04 09:59:55;;;;;;;12.27;6.38;;;21.00;99.90;;;;;;4973067;28;20093;-77
2021/11/04 10:02:25;;;;;;;10.73;6.57;;;20.70;99.90;;;;;;4955895;28;20059;-79
2021/11/04 10:05:01;;;;;;;14.43;6.72;;;20.50;99.90;;;;;;4971700;28;20097;-79
2021/11/04 10:07:46;;;;;;;12.40;6.93;;;20.90;99.90;;;;;;4971918;28;20051;-77
2021/11/04 10:10:16;;;;;;;12.07;7.07;;;21.40;99.90;;;;;;4973102;28;20049;-79
2021/11/04 10:12:57;;;;;;;12.48;6.63;;;21.60;99.90;;;;;;4955355;28;20047;-79
2021/11/04 10:15:25;;;;;;;13.07;6.65;;;21.30;99.90;;;;;;4955663;28;20077;-79
2021/11/04 10:18:08;;;;;;;11.30;7.50;;;20.40;99.90;;;;;;4973152;28;20043;-78
2021/11/04 10:20:35;;;;;;;14.35;7.10;;;20.20;99.90;;;;;;4955583;28;20054;-78
2021/11/04 10:23:08;;;;;;;13.93;6.47;;;20.90;99.90;;;;;;4973379;28;20443;-80
2021/11/04 10:25:35;;;;;;;10.77;6.68;;;21.30;99.90;;;;;;4971322;28;20453;-76
2021/11/04 10:28:31;;;;;;;13.18;6.80;;;21.30;99.90;;;;;;4987784;28;20141;-78
2021/11/04 10:30:59;;;;;;;9.60;6.35;;;21.70;99.90;;;;;;4953735;28;20050;-78
2021/11/04 10:33:30;;;;;;;11.77;6.50;;;21.50;99.90;;;;;;4972441;28;20105;-80
2021/11/04 10:36:04;;;;;;;13.00;7.78;;;21.90;99.90;;;;;;4972532;28;20039;-81
2021/11/04 10:38:55;;;;;;;12.63;6.43;;;21.80;99.90;;;;;;4956158;28;20050;-78
2021/11/04 10:41:27;;;;;;;;;;;21.90;99.90;;;;;;4959569;28;20058;-78
2021/11/04 10:44:06;;;;;;;11.20;5.78;;;20.90;99.90;;;;;;4975535;28;20021;-78
2021/11/04 10:47:02;;;;;;;11.98;6.00;;;21.00;99.90;;;;;;4960407;28;20054;-83
2021/11/04 10:49:52;;;;;;;9.88;6.15;;;20.60;99.90;;;;;;4957137;28;20074;-83
2021/11/04 10:52:29;;;;;;;14.80;6.88;;;20.70;99.90;;;;;;4974431;28;20069;-80
2021/11/04 10:55:11;;;;;;;10.32;6.72;;;20.80;99.90;;;;;;4990631;28;20038;-84
2021/11/04 10:57:41;;;;;;;15.48;7.00;;;21.10;99.90;;;;;;4976373;28;20053;-83
2021/11/04 11:00:16;;;;;;;10.27;6.30;;;22.20;99.90;;;;;;4990781;28;20132;-82
2021/11/04 11:03:04;;;;;;;13.43;6.85;;;22.80;99.90;;;;;;4971203;28;20143;-83
2021/11/04 11:05:34;;;;;;;9.43;6.28;;;22.70;99.90;;;;;;4957034;29;20150;-81
2021/11/04 11:08:09;;;;;;;11.45;6.05;;;23.10;99.90;;;;;;4939719;29;20108;-80
2021/11/04 11:10:39;;;;;;;11.65;5.95;;;23.60;99.90;;;;;;4956491;29;20437;-80
2021/11/04 11:13:10;;;;;;;10.68;5.50;;;23.50;99.90;;;;;;4939565;29;20077;-79
2021/11/04 11:15:42;;;;;;;9.15;5.38;;;23.80;99.90;;;;;;4939686;29;20043;-80
2021/11/04 11:18:10;;;;;;;11.82;5.78;;;23.90;99.90;;;;;;4939553;29;20511;-82
2021/11/04 11:20:43;;;;;;;10.38;5.75;;;23.20;99.90;;;;;;4970697;28;20059;-82
2021/11/04 11:23:13;;;;;;;10.20;5.95;;;23.60;99.90;;;;;;4955906;29;20482;-83
2021/11/04 11:25:41;;;;;;;16.25;9.10;;;23.60;99.90;;;;;;4938826;29;20047;-80
2021/11/04 11:28:09;;;;;;;14.93;9.57;;;22.40;99.90;;;;;;4939330;29;20138;-79
2021/11/04 11:30:36;;;;;;;16.58;9.80;;;21.40;99.90;;;;;;4956822;28;20493;-77
2021/11/04 11:33:24;;;;;;;22.25;9.27;;;21.30;99.90;;;;;;4973113;28;20070;-78
2021/11/04 11:36:12;;;;;;;16.20;8.65;;;20.60;99.90;;;;;;4955595;28;20498;-79
2021/11/04 11:38:55;;;;;;;17.10;10.48;;;22.00;99.90;;;;;;4954928;29;20047;-82
2021/11/04 11:41:30;;;;;;;14.88;9.05;;;21.20;99.90;;;;;;4953382;29;20054;-80
2021/11/04 11:44:00;;;;;;;16.38;9.77;;;21.90;99.90;;;;;;4935177;29;20069;-78
2021/11/04 11:46:27;;;;;;;15.85;9.07;;;21.50;99.90;;;;;;4954693;29;20442;-81
2021/11/04 11:49:12;;;;;;;15.45;9.27;;;21.10;99.90;;;;;;4954129;29;20141;-79
2021/11/04 11:51:46;;;;;;;17.63;9.48;;;21.40;99.90;;;;;;4955273;28;20130;-79
2021/11/04 11:54:13;;;;;;;14.43;9.43;;;21.30;99.90;;;;;;4938042;29;20130;-81
2021/11/04 11:56:40;;;;;;;19.63;10.65;;;20.80;99.90;;;;;;4954961;29;20050;-80
2021/11/04 11:59:17;;;;;;;14.50;10.15;;;21.10;99.90;;;;;;4954433;29;20387;-83
2021/11/04 12:01:46;;;;;;;17.42;9.95;;;21.40;99.90;;;;;;4958635;28;20048;-80
2021/11/04 12:04:29;;;;;;;18.63;9.35;;;21.10;99.90;;;;;;4975054;28;20419;-82
2021/11/04 12:07:00;;;;;;;18.42;9.60;;;21.80;99.90;;;;;;4941352;28;20074;-78
2021/11/04 12:09:40;;;;;;;15.70;9.25;;;20.60;99.90;;;;;;4974745;28;20527;-83
2021/11/04 12:12:28;;;;;;;17.57;9.70;;;20.20;99.90;;;;;;4974348;28;20046;-80
2021/11/04 12:15:01;;;;;;;16.25;10.13;;;20.50;99.90;;;;;;4974447;28;20444;-77
2021/11/04 12:17:28;;;;;;;25.63;10.27;;;21.30;99.90;;;;;;4971359;28;20105;-79
2021/11/04 12:19:59;;;;;;;18.67;10.02;;;21.80;99.90;;;;;;4955722;28;20143;-81
2021/11/04 12:22:40;;;;;;;16.88;9.07;;;21.70;99.90;;;;;;4957515;28;20102;-79
2021/11/04 12:25:12;;;;;;;17.02;9.25;;;22.70;99.90;;;;;;4940955;28;20449;-78
2021/11/04 12:27:42;;;;;;;17.45;9.57;;;25.50;97.80;;;;;;4956808;28;20368;-76
2021/11/04 12:30:25;;;;;;;;;;;25.20;96.10;;;;;;4957398;28;20062;-78
2021/11/04 12:33:03;;;;;;;17.20;9.52;;;26.10;93.50;;;;;;4974621;28;19992;-81
2021/11/04 12:35:52;;;;;;;15.45;10.00;;;26.30;91.70;;;;;;4973098;28;20047;-80
2021/11/04 12:38:29;;;;;;;14.65;10.50;;;25.00;93.70;;;;;;4956676;28;20046;-78
2021/11/04 12:41:12;;;;;;;14.88;9.50;;;25.70;92.60;;;;;;4972765;28;20047;-80
2021/11/04 12:43:39;;;;;;;17.92;9.15;;;25.10;93.80;;;;;;4973641;28;20043;-83
2021/11/04 12:46:24;;;;;;;14.85;9.82;;;24.90;94.00;;;;;;4940947;28;20138;-82